Time;durP1;ratioP1;P1;durP2;ratioP2;P2;SDS_P1;SDS_P2;PMS_P1;PMS_P2;Temp;Humidity;BMP_temperature;BMP_pressure;BME280_temperature;BME280_humidity;BME280_pressure;Samples;Min_cycle;Max_cycle;Signal;HPM_P1;HPM_P2
2021/07/22 00:01:21;;;;;;;14.90;11.53;;;;;;;20.49;58.67;94678.28;835060;71;30292;-76
2021/07/22 00:16:24;;;;;;;14.47;11.60;;;;;;;20.46;58.98;94657.63;833983;70;32870;-76
2021/07/22 00:31:21;;;;;;;15.80;12.85;;;;;;;20.40;59.38;94643.25;828132;71;29731;-76
2021/07/22 00:46:15;;;;;;;14.28;11.65;;;;;;;20.33;59.59;94644.41;828577;71;32799;-75
2021/07/22 01:01:27;;;;;;;12.50;11.20;;;;;;;20.25;59.71;94638.70;828315;71;32587;-73
2021/07/22 01:16:45;;;;;;;14.18;11.90;;;;;;;20.23;59.98;94640.94;834415;71;32779;-73
2021/07/22 01:31:21;;;;;;;12.90;11.30;;;;;;;20.20;59.96;94652.30;828090;71;30308;-74
2021/07/22 01:46:36;;;;;;;12.93;10.60;;;;;;;20.12;60.43;94649.26;819676;70;32770;-74
2021/07/22 02:01:31;;;;;;;11.90;10.60;;;;;;;20.05;60.82;94647.73;833860;71;30876;-73
2021/07/22 02:16:31;;;;;;;11.75;10.58;;;;;;;19.98;61.18;94645.12;828838;71;32797;-77
2021/07/22 02:31:22;;;;;;;11.75;10.55;;;;;;;19.91;61.36;94638.84;833775;71;30377;-75
2021/07/22 02:46:31;;;;;;;13.22;10.80;;;;;;;19.89;61.67;94655.19;833540;71;32771;-73
2021/07/22 03:16:10;;;;;;;11.25;10.05;;;;;;;19.87;62.00;94660.61;828140;71;29699;-73
2021/07/22 03:31:18;;;;;;;11.70;10.50;;;;;;;19.88;62.15;94656.28;833809;71;30284;-74
2021/07/22 03:46:22;;;;;;;10.75;9.65;;;;;;;19.99;62.26;94657.87;827269;71;33235;-72
2021/07/22 04:01:32;;;;;;;13.22;10.53;;;;;;;20.31;62.13;94655.97;837936;70;33286;-77
2021/07/22 04:16:44;;;;;;;13.13;11.65;;;;;;;20.41;61.99;94675.44;830449;71;32769;-75
2021/07/22 04:31:26;;;;;;;11.38;10.18;;;;;;;20.59;61.82;94679.88;828249;71;29781;-73
2021/07/22 04:46:23;;;;;;;11.65;10.35;;;;;;;20.80;61.38;94682.80;828070;71;30225;-74
2021/07/22 05:01:23;;;;;;;11.50;10.28;;;;;;;21.29;60.73;94690.86;827934;71;30828;-72
2021/07/22 05:16:36;;;;;;;12.20;10.23;;;;;;;23.54;55.74;94680.32;833625;71;33871;-75
2021/07/22 05:46:14;;;;;;;11.77;10.57;;;;;;;26.87;46.77;94686.41;828026;71;31132;-74
2021/07/22 06:01:28;;;;;;;11.03;9.93;;;;;;;28.14;43.16;94688.20;833842;71;30208;-74
2021/07/22 06:16:41;;;;;;;11.70;9.07;;;;;;;29.17;40.85;94696.62;827970;71;30286;-73
2021/07/22 06:31:23;;;;;;;9.97;8.97;;;;;;;29.95;39.30;94696.86;828713;71;30308;-74
2021/07/22 06:46:21;;;;;;;8.53;7.73;;;;;;;30.54;36.98;94699.69;828091;71;29897;-75
2021/07/22 07:01:20;;;;;;;6.67;6.10;;;;;;;30.53;35.26;94700.25;828104;71;32543;-76
2021/07/22 07:16:15;;;;;;;7.80;7.10;;;;;;;31.76;33.19;94683.14;828210;71;29729;-75
2021/07/22 07:31:23;;;;;;;7.00;6.40;;;;;;;31.10;32.54;94682.28;827884;71;30004;-74
2021/07/22 07:46:21;;;;;;;8.23;7.50;;;;;;;30.98;33.09;94676.69;828158;71;32040;-74
2021/07/22 08:01:25;;;;;;;6.60;5.17;;;;;;;32.51;30.27;94671.95;834701;71;29629;-75
2021/07/22 08:16:27;;;;;;;5.07;4.47;;;;;;;33.14;28.54;94670.77;829623;71;29720;-76
2021/07/22 08:31:19;;;;;;;5.90;5.20;;;;;;;33.45;26.91;94683.91;821710;71;29290;-77
2021/07/22 08:46:17;;;;;;;5.50;4.70;;;;;;;33.06;28.04;94680.28;828160;71;30122;-75
2021/07/22 09:16:57;;;;;;;5.50;5.10;;;;;;;32.17;29.44;94676.44;834817;71;32750;-74
2021/07/22 09:31:18;;;;;;;6.30;5.23;;;;;;;31.33;30.73;94666.53;823469;71;32859;-73
2021/07/22 09:46:10;;;;;;;5.30;4.90;;;;;;;31.90;29.51;94665.95;828129;71;30291;-74
2021/07/22 10:01:29;;;;;;;5.10;4.80;;;;;;;30.34;31.85;94660.34;830575;71;32739;-78
2021/07/22 10:16:25;;;;;;;5.00;4.60;;;;;;;29.92;32.62;94653.77;828326;71;30263;-74
2021/07/22 10:31:27;;;;;;;4.07;3.87;;;;;;;31.06;29.78;94646.91;828154;71;29706;-74
2021/07/22 10:46:20;;;;;;;4.47;4.17;;;;;;;32.44;28.46;94632.71;828157;71;29936;-75
2021/07/22 11:01:35;;;;;;;4.20;3.90;;;;;;;34.14;26.91;94626.89;833827;71;29680;-75
2021/07/22 11:16:32;;;;;;;3.97;3.67;;;;;;;34.82;24.54;94623.31;829723;71;29379;-76
2021/07/22 11:31:16;;;;;;;3.57;3.37;;;;;;;33.33;26.03;94604.56;829312;71;29718;-75
2021/07/22 11:46:18;;;;;;;4.60;4.30;;;;;;;31.37;28.73;94596.52;828213;71;29305;-74
2021/07/22 12:01:11;;;;;;;4.27;3.87;;;;;;;29.95;31.74;94585.31;828657;71;29569;-74
2021/07/22 12:02:17;;;;;;;5.17;4.67;;;;;;;29.73;32.11;94601.10;809107;73;26907;-77
2021/07/22 12:16:50;;;;;;;4.83;4.30;;;;;;;29.00;33.27;94587.53;834044;71;32738;-74
2021/07/22 12:46:38;;;;;;;3.60;3.30;;;;;;;28.72;33.21;94563.72;828226;71;29508;-74
2021/07/22 13:01:28;;;;;;;3.70;3.43;;;;;;;29.05;32.34;94556.58;828176;71;29677;-75
2021/07/22 13:16:34;;;;;;;3.83;3.57;;;;;;;29.45;31.44;94548.75;831105;71;32773;-75
2021/07/22 13:31:21;;;;;;;3.40;3.20;;;;;;;28.90;31.73;94543.84;833695;71;33223;-75
2021/07/22 13:46:11;;;;;;;3.53;3.33;;;;;;;29.06;31.92;94539.21;829001;71;30230;-77
2021/07/22 14:01:38;;;;;;;4.00;3.70;;;;;;;28.02;33.17;94534.33;828213;71;30228;-75
2021/07/22 14:16:40;;;;;;;5.00;4.47;;;;;;;;;;831074;71;33189;-73
2021/07/22 14:31:49;;;;;;;4.20;3.93;;;;;;;26.57;37.05;94539.51;815943;71;32670;-76
2021/07/22 14:46:17;;;;;;;4.20;3.90;;;;;;;26.51;37.17;94528.37;828859;71;29926;-75
2021/07/22 15:16:27;;;;;;;4.37;4.03;;;;;;;;;;834129;71;32796;-76
2021/07/22 15:31:35;;;;;;;5.97;5.37;;;;;;;26.79;36.55;94514.66;827080;71;33212;-75
2021/07/22 15:46:21;;;;;;;4.93;4.53;;;;;;;26.07;35.80;94372.86;828625;71;30272;-76
2021/07/22 16:01:19;;;;;;;3.87;3.57;;;;;;;27.30;36.06;94492.28;833920;71;30109;-75
2021/07/22 17:02:14;;;;;;;4.37;4.07;;;;;;;24.76;38.48;94351.30;828082;71;29840;-76
2021/07/22 17:16:22;;;;;;;4.23;3.93;;;;;;;25.55;39.34;94524.62;828069;71;29399;-73
2021/07/22 18:01:08;;;;;;;5.50;5.07;;;;;;;24.65;42.27;94521.48;828256;71;28956;-74
2021/07/22 19:16:48;;;;;;;7.57;6.63;;;;;;;22.66;50.14;94585.72;808734;72;31904;-74
2021/07/22 19:46:58;;;;;;;8.50;7.60;;;;;;;22.34;51.01;94592.73;834006;71;32704;-75
2021/07/22 20:01:12;;;;;;;8.07;7.27;;;;;;;22.26;51.35;94597.77;829336;71;30318;-77
2021/07/22 20:02:16;;;;;;;7.10;6.50;;;;;;;22.23;51.66;94597.13;810119;73;27937;-78
2021/07/22 20:16:15;;;;;;;9.53;8.40;;;;;;;22.16;52.56;94589.22;833879;71;32726;-75
2021/07/22 20:31:29;;;;;;;7.50;6.80;;;;;;;22.08;53.43;94592.91;827367;71;32692;-74
2021/07/22 20:47:02;;;;;;;7.80;7.00;;;;;;;21.93;54.31;94591.90;794628;74;32854;-77
2021/07/22 21:02:12;;;;;;;6.55;6.05;;;;;;;21.77;54.58;94602.70;833694;71;30648;-76
2021/07/22 21:16:35;;;;;;;7.30;6.30;;;;;;;21.66;55.08;94598.33;833930;71;29688;-76
2021/07/22 21:31:19;;;;;;;6.70;6.00;;;;;;;21.54;55.66;94596.59;829803;71;29769;-75
2021/07/22 21:46:17;;;;;;;8.08;7.28;;;;;;;21.41;55.92;94599.95;828104;71;30393;-75
2021/07/22 22:01:15;;;;;;;6.80;6.20;;;;;;;21.30;55.80;94590.98;828099;71;30795;-75
2021/07/22 22:16:13;;;;;;;6.37;5.87;;;;;;;21.14;56.61;94589.73;828006;71;30378;-74
2021/07/22 22:31:10;;;;;;;5.40;5.00;;;;;;;20.97;56.70;94592.28;828104;71;30478;-76
2021/07/22 22:46:24;;;;;;;6.30;5.70;;;;;;;20.79;57.71;94590.59;833799;71;30276;-74
2021/07/22 23:01:23;;;;;;;5.75;5.35;;;;;;;20.58;58.11;94587.69;827949;71;30866;-75
2021/07/22 23:16:23;;;;;;;6.08;5.58;;;;;;;20.42;58.46;94585.61;827917;71;31404;-75
2021/07/22 23:31:24;;;;;;;5.90;5.40;;;;;;;20.28;59.01;94579.39;828160;71;32698;-76
